Millhousen, Indiana
Current Conditions -  °F | °C
As of 9:47 PM on Wednesday 26 Nov 2014 (Local Time) from KBAK Reporting Station
Overcast Overcast  
Wind Chill: 25°   Ceiling: 8000
Heat Index: 30°   Visibility: 10mi
Dew Point: 28°   Wind: 5mph
Humidity: 93%   Direction: 30°NNE
Pressure: 30.08"   Gusts: NA
Location:  39.21°N, 85.43°W
Report Text: KBAK 270247Z 03004KT 10SM OVC080 M01/M02 A3008 RMK LAST
Loading
Personal Weather Stations






























Interactive Weather Map New forecast layout! Learn more

10-Day Weather Forecast

Advertisements
Track Severe Weather on mobile